Time;durP1;ratioP1;P1;durP2;ratioP2;P2;SDS_P1;SDS_P2;PMS_P1;PMS_P2;Temp;Humidity;BMP_temperature;BMP_pressure;BME280_temperature;BME280_humidity;BME280_pressure;Samples;Min_cycle;Max_cycle;Signal;HPM_P1;HPM_P2
2021/03/04 00:02:35;;;;;;;122.07;64.77;;;;;;;;;;5000308;28;20222;-35
2021/03/04 00:05:21;;;;;;;117.33;60.67;;;;;;;;;;5000153;28;20293;-36
2021/03/04 00:08:09;;;;;;;120.57;65.60;;;;;;;;;;4999666;28;20202;-36
2021/03/04 00:10:55;;;;;;;139.57;70.10;;;;;;;;;;5000101;28;20593;-34
2021/03/04 00:13:48;;;;;;;143.60;73.37;;;;;;;;;;4999785;28;20334;-32
2021/03/04 00:16:34;;;;;;;138.80;74.33;;;;;;;;;;4999370;28;20261;-34
2021/03/04 00:19:25;;;;;;;137.70;71.97;;;;;;;;;;4999666;28;20202;-37
2021/03/04 00:22:12;;;;;;;145.03;73.53;;;;;;;;;;4999823;28;20634;-35
2021/03/04 00:25:01;;;;;;;126.50;68.27;;;;;;;;;;4999429;28;20314;-34
2021/03/04 00:27:47;;;;;;;135.03;72.93;;;;;;;;;;4999453;28;20482;-36
2021/03/04 00:30:33;;;;;;;138.07;70.60;;;;;;;;;;4999608;28;20203;-32
2021/03/04 00:33:20;;;;;;;136.37;68.30;;;;;;;;;;4999565;28;20355;-35
2021/03/04 00:36:11;;;;;;;142.63;75.60;;;;;;;;;;4999398;28;20305;-36
2021/03/04 00:38:59;;;;;;;136.73;73.40;;;;;;;;;;4999582;28;20341;-32
2021/03/04 00:41:45;;;;;;;139.97;72.17;;;;;;;;;;4999615;28;20206;-38
2021/03/04 00:44:37;;;;;;;136.63;70.77;;;;;;;;;;4999436;28;20202;-34
2021/03/04 00:47:24;;;;;;;136.97;68.60;;;;;;;;;;4999128;28;20204;-34
2021/03/04 00:50:11;;;;;;;133.43;69.50;;;;;;;;;;4999089;28;20199;-36
2021/03/04 00:52:58;;;;;;;129.57;67.70;;;;;;;;;;4998914;28;20206;-36
2021/03/04 00:55:44;;;;;;;133.77;69.17;;;;;;;;;;4999327;28;20341;-35
2021/03/04 00:58:31;;;;;;;142.57;73.30;;;;;;;;;;4998898;28;20198;-34
2021/03/04 01:01:19;;;;;;;138.13;72.13;;;;;;;;;;4999260;28;20268;-36
2021/03/04 01:04:07;;;;;;;146.23;70.30;;;;;;;;;;4998849;28;20199;-34
2021/03/04 01:06:53;;;;;;;126.27;68.53;;;;;;;;;;4999134;28;20206;-35
2021/03/04 01:09:42;;;;;;;139.53;66.63;;;;;;;;;;4999153;28;20262;-38
2021/03/04 01:12:27;;;;;;;130.70;68.73;;;;;;;;;;4998719;28;20648;-33
2021/03/04 01:15:15;;;;;;;128.80;65.73;;;;;;;;;;4999035;28;20592;-36
2021/03/04 01:18:02;;;;;;;127.00;64.87;;;;;;;;;;4998519;28;20308;-36
2021/03/04 01:20:51;;;;;;;123.97;63.93;;;;;;;;;;4997756;28;20235;-35
2021/03/04 01:23:37;;;;;;;125.10;62.63;;;;;;;;;;4998665;28;20215;-36
2021/03/04 01:26:24;;;;;;;122.20;61.50;;;;;;;;;;4998794;28;20526;-36
2021/03/04 01:29:10;;;;;;;124.87;60.63;;;;;;;;;;4998479;28;20277;-36
2021/03/04 01:31:56;;;;;;;111.87;59.40;;;;;;;;;;4998350;28;20207;-36
2021/03/04 01:34:43;;;;;;;128.93;62.40;;;;;;;;;;4998373;28;20249;-39
2021/03/04 01:37:28;;;;;;;122.10;59.63;;;;;;;;;;4998350;28;20304;-36
2021/03/04 01:40:15;;;;;;;121.63;61.47;;;;;;;;;;4998500;28;20261;-33
2021/03/04 01:43:04;;;;;;;125.40;61.57;;;;;;;;;;4998279;28;20243;-34
2021/03/04 01:45:50;;;;;;;118.37;60.20;;;;;;;;;;4998370;28;20202;-34
2021/03/04 01:48:38;;;;;;;124.70;60.63;;;;;;;;;;4998065;28;20242;-34
2021/03/04 01:51:24;;;;;;;116.90;57.50;;;;;;;;;;4997861;28;20203;-34
2021/03/04 01:54:10;;;;;;;115.70;58.27;;;;;;;;;;4997910;28;20226;-34
2021/03/04 01:56:56;;;;;;;113.97;56.10;;;;;;;;;;4997908;28;20205;-34
2021/03/04 01:59:43;;;;;;;109.77;54.10;;;;;;;;;;4998073;28;20198;-33
2021/03/04 02:02:29;;;;;;;114.77;53.30;;;;;;;;;;4997943;28;20261;-32
2021/03/04 02:05:16;;;;;;;111.20;53.00;;;;;;;;;;4998236;28;20206;-35
2021/03/04 02:08:05;;;;;;;121.77;56.37;;;;;;;;;;4998064;28;20213;-32
2021/03/04 02:10:55;;;;;;;117.30;54.07;;;;;;;;;;4998143;28;20211;-36
2021/03/04 02:13:43;;;;;;;123.63;58.10;;;;;;;;;;4997801;28;20226;-35
2021/03/04 02:16:32;;;;;;;161.47;55.93;;;;;;;;;;4997514;28;20202;-36
2021/03/04 02:19:37;;;;;;;207.80;66.03;;;;;;;;;;4998046;28;20261;-36
2021/03/04 02:22:41;;;;;;;277.23;69.50;;;;;;;;;;4997996;28;20210;-37
2021/03/04 02:25:29;;;;;;;219.43;67.27;;;;;;;;;;4997754;28;20281;-37
2021/03/04 02:28:15;;;;;;;303.03;71.10;;;;;;;;;;4997803;28;20210;-36
2021/03/04 02:31:03;;;;;;;245.70;71.27;;;;;;;;;;4997689;28;20206;-39
2021/03/04 02:33:53;;;;;;;222.17;70.53;;;;;;;;;;4997520;28;20238;-35
2021/03/04 02:36:41;;;;;;;340.50;77.73;;;;;;;;;;4997549;28;20202;-34
2021/03/04 02:39:31;;;;;;;228.97;74.40;;;;;;;;;;4997448;28;20207;-37
2021/03/04 02:42:18;;;;;;;321.07;78.43;;;;;;;;;;4997587;28;20341;-35
2021/03/04 02:45:06;;;;;;;202.17;71.20;;;;;;;;;;4997281;28;20257;-36
2021/03/04 02:47:53;;;;;;;235.37;74.53;;;;;;;;;;4997623;28;20198;-37
2021/03/04 02:50:39;;;;;;;380.07;82.07;;;;;;;;;;4997132;28;20195;-34
2021/03/04 02:53:25;;;;;;;268.93;76.23;;;;;;;;;;4997161;28;20497;-34
2021/03/04 02:56:12;;;;;;;250.93;78.23;;;;;;;;;;4997398;28;20234;-37
2021/03/04 02:59:01;;;;;;;310.47;78.30;;;;;;;;;;4997157;28;20218;-33
2021/03/04 03:01:48;;;;;;;220.77;76.33;;;;;;;;;;4997447;28;20361;-39
2021/03/04 03:04:39;;;;;;;291.77;82.97;;;;;;;;;;4997391;28;20195;-35
2021/03/04 03:07:26;;;;;;;234.00;75.23;;;;;;;;;;4996991;28;20205;-34
2021/03/04 03:10:13;;;;;;;261.00;82.23;;;;;;;;;;4997296;28;20246;-34
2021/03/04 03:13:01;;;;;;;275.20;83.83;;;;;;;;;;4996803;28;20393;-34
2021/03/04 03:15:50;;;;;;;262.33;77.60;;;;;;;;;;4998280;28;20478;-34
2021/03/04 03:18:37;;;;;;;243.07;79.83;;;;;;;;;;4997588;28;20296;-35
2021/03/04 03:21:23;;;;;;;511.00;101.30;;;;;;;;;;4997603;28;20713;-33
2021/03/04 03:24:10;;;;;;;324.90;83.63;;;;;;;;;;4996962;28;20660;-37
2021/03/04 03:26:55;;;;;;;415.00;84.80;;;;;;;;;;4997042;28;20616;-36
2021/03/04 03:29:44;;;;;;;457.23;94.10;;;;;;;;;;4997251;28;20308;-36
2021/03/04 03:32:32;;;;;;;272.00;74.07;;;;;;;;;;4997207;28;20193;-34
2021/03/04 03:35:20;;;;;;;353.33;87.80;;;;;;;;;;4997135;28;20234;-38
2021/03/04 03:38:08;;;;;;;336.47;86.43;;;;;;;;;;4997286;28;20597;-34
2021/03/04 03:40:55;;;;;;;376.47;80.40;;;;;;;;;;4997079;28;20218;-38
2021/03/04 03:43:42;;;;;;;373.70;83.43;;;;;;;;;;4997430;28;20466;-35
2021/03/04 03:46:30;;;;;;;412.13;87.17;;;;;;;;;;5000749;28;20202;-36
2021/03/04 03:49:18;;;;;;;367.07;87.70;;;;;;;;;;5000349;28;20202;-35
2021/03/04 03:52:05;;;;;;;303.83;79.23;;;;;;;;;;5000476;28;20405;-37
2021/03/04 03:54:51;;;;;;;373.27;82.93;;;;;;;;;;5000620;28;20225;-39
2021/03/04 03:57:38;;;;;;;302.47;78.67;;;;;;;;;;5000319;28;20607;-34
2021/03/04 04:00:24;;;;;;;266.47;72.40;;;;;;;;;;5000082;28;20597;-38
2021/03/04 04:03:12;;;;;;;264.90;71.00;;;;;;;;;;5000578;28;20600;-36
2021/03/04 04:05:58;;;;;;;258.10;70.23;;;;;;;;;;5000047;28;20597;-37
2021/03/04 04:08:48;;;;;;;361.30;79.30;;;;;;;;;;5000174;28;20266;-35
2021/03/04 04:11:34;;;;;;;343.93;78.07;;;;;;;;;;4999999;28;20728;-36
2021/03/04 04:14:20;;;;;;;246.20;71.37;;;;;;;;;;4999910;28;20229;-37
2021/03/04 04:17:07;;;;;;;259.83;71.73;;;;;;;;;;5000150;28;20198;-36
2021/03/04 04:19:54;;;;;;;340.67;72.03;;;;;;;;;;4999953;28;20631;-34
2021/03/04 04:22:40;;;;;;;313.30;70.40;;;;;;;;;;5000079;28;20305;-35
2021/03/04 04:25:27;;;;;;;280.20;75.17;;;;;;;;;;4999792;28;20194;-35
2021/03/04 04:28:13;;;;;;;346.43;75.30;;;;;;;;;;4999784;28;20349;-34
2021/03/04 04:30:59;;;;;;;269.47;69.67;;;;;;;;;;4999710;28;20475;-36
2021/03/04 04:33:45;;;;;;;344.80;73.00;;;;;;;;;;4999939;28;20206;-37
2021/03/04 04:36:31;;;;;;;340.20;72.00;;;;;;;;;;4999285;28;20214;-36
2021/03/04 04:39:20;;;;;;;298.57;71.63;;;;;;;;;;5001657;28;20217;-38
2021/03/04 04:42:19;;;;;;;442.50;88.80;;;;;;;;;;5019029;28;20299;-38
2021/03/04 04:45:09;;;;;;;333.63;75.13;;;;;;;;;;5018644;28;20554;-35
2021/03/04 04:47:55;;;;;;;368.83;79.37;;;;;;;;;;5018749;28;20201;-33
2021/03/04 04:50:40;;;;;;;377.50;82.03;;;;;;;;;;5018928;28;20202;-32
2021/03/04 04:53:26;;;;;;;430.93;87.80;;;;;;;;;;5018261;28;20299;-34
2021/03/04 04:56:12;;;;;;;244.07;67.53;;;;;;;;;;5019296;28;20595;-36
2021/03/04 04:58:59;;;;;;;257.83;70.00;;;;;;;;;;5018348;28;20197;-39
2021/03/04 05:01:45;;;;;;;257.40;67.03;;;;;;;;;;5018648;28;20402;-35
2021/03/04 05:04:34;;;;;;;233.83;64.63;;;;;;;;;;5018518;28;20205;-33
2021/03/04 05:07:20;;;;;;;207.27;63.53;;;;;;;;;;5018520;28;20197;-36
2021/03/04 05:10:07;;;;;;;197.73;57.73;;;;;;;;;;5018460;28;20201;-39
2021/03/04 05:12:53;;;;;;;179.63;57.63;;;;;;;;;;5018215;28;20508;-35
2021/03/04 05:15:40;;;;;;;196.63;54.80;;;;;;;;;;5018275;28;20291;-33
2021/03/04 05:18:27;;;;;;;189.30;55.77;;;;;;;;;;5018582;28;20202;-35
2021/03/04 05:21:13;;;;;;;174.83;52.40;;;;;;;;;;5018673;28;20205;-33
2021/03/04 05:23:59;;;;;;;198.33;55.13;;;;;;;;;;5018536;28;20337;-33
2021/03/04 05:26:45;;;;;;;178.03;52.70;;;;;;;;;;5017751;28;20301;-35
2021/03/04 05:29:31;;;;;;;197.73;56.07;;;;;;;;;;5017789;28;20201;-36
2021/03/04 05:32:21;;;;;;;210.60;59.37;;;;;;;;;;5018360;28;20352;-33
2021/03/04 05:35:08;;;;;;;210.60;57.33;;;;;;;;;;5017683;28;20225;-34
2021/03/04 05:37:54;;;;;;;260.37;64.47;;;;;;;;;;5017845;28;20225;-35
2021/03/04 05:40:40;;;;;;;244.27;59.70;;;;;;;;;;5017884;28;20523;-34
2021/03/04 05:43:26;;;;;;;197.33;55.23;;;;;;;;;;5017981;28;20201;-34
2021/03/04 05:46:13;;;;;;;168.97;50.67;;;;;;;;;;5017825;28;20493;-34
2021/03/04 05:49:05;;;;;;;179.87;51.90;;;;;;;;;;5017331;28;20206;-34
2021/03/04 05:52:16;;;;;;;164.63;50.50;;;;;;;;;;5017445;28;20229;-37
2021/03/04 05:55:03;;;;;;;174.13;50.80;;;;;;;;;;5017437;28;20320;-33
2021/03/04 05:57:51;;;;;;;160.13;53.70;;;;;;;;;;5016292;28;20604;-36
2021/03/04 06:00:40;;;;;;;167.17;49.70;;;;;;;;;;5017564;28;20205;-35
2021/03/04 06:03:26;;;;;;;142.50;46.87;;;;;;;;;;5017510;28;20198;-39
2021/03/04 06:06:15;;;;;;;238.57;59.87;;;;;;;;;;5017595;28;20197;-37
2021/03/04 06:09:02;;;;;;;166.97;50.47;;;;;;;;;;5017748;28;20341;-40
2021/03/04 06:11:47;;;;;;;170.13;49.77;;;;;;;;;;5018139;28;20528;-40
2021/03/04 06:14:34;;;;;;;174.30;49.60;;;;;;;;;;5017015;28;20622;-40
2021/03/04 06:17:20;;;;;;;182.90;50.20;;;;;;;;;;5017311;28;20249;-38
2021/03/04 06:20:07;;;;;;;193.17;53.77;;;;;;;;;;5017603;28;20205;-36
2021/03/04 06:22:53;;;;;;;196.93;52.33;;;;;;;;;;5017232;28;20605;-36
2021/03/04 06:25:39;;;;;;;227.07;55.87;;;;;;;;;;5017538;28;20305;-37
2021/03/04 06:28:30;;;;;;;198.40;52.03;;;;;;;;;;5016617;28;20444;-39
2021/03/04 06:31:18;;;;;;;208.57;53.00;;;;;;;;;;5016384;28;20221;-38
2021/03/04 06:34:14;;;;;;;237.90;53.87;;;;;;;;;;5016356;28;20537;-38
2021/03/04 06:37:02;;;;;;;238.77;53.77;;;;;;;;;;5016066;28;20210;-37
2021/03/04 06:39:51;;;;;;;223.63;52.20;;;;;;;;;;5016220;28;20217;-36
2021/03/04 06:42:41;;;;;;;249.97;53.70;;;;;;;;;;5016093;28;20198;-37
2021/03/04 06:45:28;;;;;;;241.57;55.27;;;;;;;;;;5015817;28;20449;-38
2021/03/04 06:48:16;;;;;;;216.67;55.83;;;;;;;;;;5016216;28;20482;-36
2021/03/04 06:51:05;;;;;;;250.03;55.63;;;;;;;;;;5017036;28;20193;-36
2021/03/04 06:53:51;;;;;;;276.10;59.43;;;;;;;;;;5016305;28;20214;-37
2021/03/04 06:56:38;;;;;;;358.97;66.80;;;;;;;;;;5016376;28;20592;-36
2021/03/04 06:59:24;;;;;;;237.57;52.43;;;;;;;;;;5016094;28;20205;-38
2021/03/04 07:02:10;;;;;;;275.87;55.63;;;;;;;;;;5016340;28;20704;-40
2021/03/04 07:05:00;;;;;;;247.20;54.40;;;;;;;;;;5016788;28;20593;-39
2021/03/04 07:07:50;;;;;;;218.03;53.57;;;;;;;;;;5015740;28;20202;-37
2021/03/04 07:10:36;;;;;;;240.50;56.53;;;;;;;;;;5015834;28;20489;-38
2021/03/04 07:13:25;;;;;;;242.30;55.03;;;;;;;;;;5015461;28;20296;-37
2021/03/04 07:16:16;;;;;;;210.40;50.83;;;;;;;;;;5015139;28;20376;-35
2021/03/04 07:19:03;;;;;;;226.53;50.87;;;;;;;;;;5032762;28;20596;-38
2021/03/04 07:21:53;;;;;;;210.23;47.90;;;;;;;;;;5039706;28;20345;-37
2021/03/04 07:24:40;;;;;;;211.07;51.27;;;;;;;;;;5024057;28;20213;-37
2021/03/04 07:27:26;;;;;;;229.63;53.07;;;;;;;;;;5020376;28;20357;-40
2021/03/04 07:30:14;;;;;;;205.77;52.57;;;;;;;;;;5019789;28;20202;-34
2021/03/04 07:33:01;;;;;;;225.80;52.73;;;;;;;;;;5020032;28;20229;-37
2021/03/04 07:35:49;;;;;;;309.93;58.80;;;;;;;;;;5019863;28;20225;-39
2021/03/04 07:38:40;;;;;;;279.53;59.40;;;;;;;;;;5019934;28;20266;-36
2021/03/04 07:41:37;;;;;;;233.70;52.13;;;;;;;;;;5019332;28;20478;-38
2021/03/04 07:44:24;;;;;;;247.13;52.97;;;;;;;;;;5019512;28;20475;-40
2021/03/04 07:47:14;;;;;;;369.60;60.80;;;;;;;;;;5018837;28;20201;-37
2021/03/04 07:50:03;;;;;;;278.40;57.93;;;;;;;;;;5019250;28;20218;-40
2021/03/04 07:53:02;;;;;;;405.97;66.30;;;;;;;;;;5018507;28;20292;-41
2021/03/04 07:55:52;;;;;;;342.13;61.93;;;;;;;;;;5017926;28;20202;-42
2021/03/04 07:58:39;;;;;;;293.27;58.00;;;;;;;;;;5018697;28;20320;-39
2021/03/04 08:01:28;;;;;;;276.47;55.50;;;;;;;;;;5019128;28;20293;-41
2021/03/04 08:04:22;;;;;;;304.17;60.60;;;;;;;;;;5018511;28;20197;-39
2021/03/04 08:07:07;;;;;;;260.00;51.03;;;;;;;;;;5018622;28;20202;-39
2021/03/04 08:10:04;;;;;;;250.90;53.73;;;;;;;;;;5018243;28;20357;-41
2021/03/04 08:12:51;;;;;;;219.93;52.07;;;;;;;;;;5018713;28;20229;-41
2021/03/04 08:15:40;;;;;;;309.67;58.60;;;;;;;;;;5018333;28;20696;-38
2021/03/04 08:18:27;;;;;;;232.37;51.70;;;;;;;;;;5018334;28;20198;-41
2021/03/04 08:21:14;;;;;;;216.50;52.17;;;;;;;;;;5018613;28;20478;-41
2021/03/04 08:24:14;;;;;;;264.37;53.90;;;;;;;;;;5018635;28;20353;-39
2021/03/04 08:27:01;;;;;;;349.23;60.37;;;;;;;;;;5018086;28;20197;-36
2021/03/04 08:29:48;;;;;;;425.17;67.07;;;;;;;;;;5017527;28;20201;-38
2021/03/04 08:32:35;;;;;;;370.90;60.10;;;;;;;;;;5018075;28;20193;-39
2021/03/04 08:35:25;;;;;;;372.97;64.57;;;;;;;;;;5016337;28;20206;-41
2021/03/04 08:38:17;;;;;;;286.60;55.20;;;;;;;;;;5017799;28;20317;-43
2021/03/04 08:41:09;;;;;;;286.23;54.67;;;;;;;;;;5018242;28;20284;-41
2021/03/04 08:43:57;;;;;;;257.30;55.03;;;;;;;;;;5018574;28;20206;-41
2021/03/04 08:46:49;;;;;;;240.87;60.07;;;;;;;;;;5018207;28;20474;-42
2021/03/04 08:49:40;;;;;;;189.50;43.67;;;;;;;;;;5018148;28;20201;-39
2021/03/04 08:52:26;;;;;;;164.73;44.53;;;;;;;;;;5018249;28;20217;-40
2021/03/04 08:55:13;;;;;;;144.37;40.03;;;;;;;;;;5018094;28;20597;-39
2021/03/04 08:58:06;;;;;;;142.37;44.60;;;;;;;;;;5017545;28;20209;-36
2021/03/04 09:00:52;;;;;;;123.23;38.10;;;;;;;;;;5015620;28;20639;-36
2021/03/04 09:03:39;;;;;;;128.73;35.00;;;;;;;;;;5018422;28;20201;-40
2021/03/04 09:06:25;;;;;;;130.87;38.43;;;;;;;;;;5017150;28;20706;-38
2021/03/04 09:09:20;;;;;;;141.93;39.07;;;;;;;;;;5017650;28;20205;-40
2021/03/04 09:12:07;;;;;;;136.50;38.57;;;;;;;;;;5017699;28;20314;-37
2021/03/04 09:14:57;;;;;;;151.03;40.20;;;;;;;;;;5016067;28;20248;-35
2021/03/04 09:17:43;;;;;;;199.77;44.40;;;;;;;;;;5016260;28;20256;-39
2021/03/04 09:20:30;;;;;;;176.23;42.97;;;;;;;;;;5018277;28;20230;-39
2021/03/04 09:23:16;;;;;;;201.30;45.57;;;;;;;;;;5023851;28;20542;-37
2021/03/04 09:26:02;;;;;;;176.47;41.87;;;;;;;;;;5020457;28;20316;-40
2021/03/04 09:28:49;;;;;;;180.57;43.23;;;;;;;;;;5016961;28;20256;-39
2021/03/04 09:31:48;;;;;;;160.90;41.00;;;;;;;;;;5017039;28;20353;-41
2021/03/04 09:34:35;;;;;;;142.40;38.10;;;;;;;;;;5016634;28;20198;-40
2021/03/04 09:37:23;;;;;;;139.80;38.67;;;;;;;;;;5015987;28;20207;-38
2021/03/04 09:40:28;;;;;;;123.23;33.40;;;;;;;;;;5016582;28;20350;-38
2021/03/04 09:43:18;;;;;;;139.30;36.67;;;;;;;;;;5016183;28;20197;-38
2021/03/04 09:46:05;;;;;;;138.07;39.13;;;;;;;;;;5016615;28;20229;-36
2021/03/04 09:48:53;;;;;;;133.50;36.20;;;;;;;;;;5020479;28;20563;-39
2021/03/04 09:51:47;;;;;;;130.93;33.47;;;;;;;;;;5020969;28;20768;-34
2021/03/04 09:54:34;;;;;;;135.47;37.43;;;;;;;;;;5017148;28;20192;-37
2021/03/04 09:57:21;;;;;;;161.80;38.33;;;;;;;;;;5016783;28;20198;-36
2021/03/04 10:00:07;;;;;;;161.37;38.23;;;;;;;;;;5016799;28;20481;-38
2021/03/04 10:02:56;;;;;;;142.27;36.47;;;;;;;;;;5016306;28;20285;-38
2021/03/04 10:05:47;;;;;;;136.07;34.80;;;;;;;;;;5016137;28;20229;-40
2021/03/04 10:08:36;;;;;;;149.27;37.17;;;;;;;;;;5016481;28;20280;-39
2021/03/04 10:11:23;;;;;;;140.70;35.77;;;;;;;;;;5015284;28;20667;-42
2021/03/04 10:14:10;;;;;;;144.73;37.13;;;;;;;;;;4997691;28;20301;-39
2021/03/04 10:16:56;;;;;;;142.10;35.13;;;;;;;;;;4997277;28;20297;-37
2021/03/04 10:19:44;;;;;;;139.53;34.30;;;;;;;;;;4997182;28;20337;-39
2021/03/04 10:22:30;;;;;;;143.93;37.13;;;;;;;;;;4995954;28;20222;-36
2021/03/04 10:25:35;;;;;;;135.87;37.23;;;;;;;;;;4997255;28;20380;-38
2021/03/04 10:28:21;;;;;;;147.07;38.87;;;;;;;;;;4996308;28;20481;-38
2021/03/04 10:31:08;;;;;;;145.77;36.30;;;;;;;;;;4996942;28;20210;-39
2021/03/04 10:33:54;;;;;;;195.73;39.83;;;;;;;;;;4995838;28;20206;-40
2021/03/04 10:36:41;;;;;;;175.40;40.20;;;;;;;;;;4995739;28;20294;-39
2021/03/04 10:39:28;;;;;;;169.37;39.53;;;;;;;;;;4996968;28;20197;-37
2021/03/04 10:42:14;;;;;;;164.53;37.00;;;;;;;;;;4996629;28;20502;-40
2021/03/04 10:45:00;;;;;;;152.70;37.13;;;;;;;;;;4996381;28;20234;-37
2021/03/04 10:47:48;;;;;;;136.47;36.87;;;;;;;;;;4996932;28;20517;-36
2021/03/04 10:50:35;;;;;;;114.83;32.37;;;;;;;;;;4996680;28;20707;-39
2021/03/04 10:53:22;;;;;;;90.30;28.57;;;;;;;;;;5008055;28;20198;-40
2021/03/04 10:56:24;;;;;;;92.83;27.83;;;;;;;;;;5020116;28;20202;-40
2021/03/04 10:59:21;;;;;;;87.33;26.37;;;;;;;;;;5020714;28;20260;-40
2021/03/04 11:02:10;;;;;;;108.50;30.23;;;;;;;;;;5020332;28;20213;-38
2021/03/04 11:04:56;;;;;;;108.80;29.63;;;;;;;;;;5020452;28;20319;-34
2021/03/04 11:07:42;;;;;;;120.60;32.47;;;;;;;;;;5020234;28;20720;-35
2021/03/04 11:10:28;;;;;;;105.43;32.10;;;;;;;;;;5020461;28;20268;-40
2021/03/04 11:13:16;;;;;;;99.43;30.20;;;;;;;;;;5020149;28;20540;-40
2021/03/04 11:16:02;;;;;;;110.93;32.93;;;;;;;;;;5020008;28;20201;-37
2021/03/04 11:18:48;;;;;;;100.57;30.70;;;;;;;;;;5019813;28;20248;-38
2021/03/04 11:21:35;;;;;;;111.70;30.17;;;;;;;;;;5019025;28;20284;-34
2021/03/04 11:24:21;;;;;;;110.00;32.17;;;;;;;;;;5019127;28;20314;-40
2021/03/04 11:27:11;;;;;;;111.63;31.00;;;;;;;;;;5019505;28;20197;-40
2021/03/04 11:29:57;;;;;;;119.67;30.37;;;;;;;;;;5018331;28;20313;-39
2021/03/04 11:32:45;;;;;;;110.80;30.47;;;;;;;;;;5019011;28;20604;-39
2021/03/04 11:35:33;;;;;;;100.17;27.70;;;;;;;;;;5019782;28;20202;-36
2021/03/04 11:38:19;;;;;;;92.40;26.87;;;;;;;;;;5018448;28;20245;-36
2021/03/04 11:41:06;;;;;;;85.53;26.23;;;;;;;;;;5019657;28;20583;-36
2021/03/04 11:43:52;;;;;;;85.23;26.43;;;;;;;;;;5015052;28;20607;-38
2021/03/04 11:46:41;;;;;;;91.03;26.97;;;;;;;;;;5019254;28;20369;-38
2021/03/04 11:49:28;;;;;;;88.63;25.33;;;;;;;;;;5019289;28;20226;-38
2021/03/04 11:52:18;;;;;;;72.50;21.63;;;;;;;;;;5019499;28;20205;-34
2021/03/04 11:55:05;;;;;;;65.97;21.70;;;;;;;;;;5019128;28;20356;-35
2021/03/04 11:57:54;;;;;;;72.07;23.30;;;;;;;;;;5019382;28;20465;-35
2021/03/04 12:00:41;;;;;;;78.23;25.73;;;;;;;;;;5019234;28;20530;-37
2021/03/04 12:03:27;;;;;;;76.07;22.07;;;;;;;;;;5019136;28;20288;-37
2021/03/04 12:06:17;;;;;;;79.03;24.63;;;;;;;;;;5018456;28;20233;-37
2021/03/04 12:09:05;;;;;;;74.07;21.83;;;;;;;;;;5018297;28;20193;-35
2021/03/04 12:12:03;;;;;;;78.83;24.17;;;;;;;;;;5018864;28;20229;-37
2021/03/04 12:14:53;;;;;;;86.17;26.13;;;;;;;;;;5019072;28;20201;-41
2021/03/04 12:17:40;;;;;;;84.07;26.33;;;;;;;;;;5018668;28;20621;-37
2021/03/04 12:20:33;;;;;;;86.17;25.40;;;;;;;;;;5018561;28;20206;-36
2021/03/04 12:23:21;;;;;;;71.23;22.97;;;;;;;;;;5018967;28;20206;-39
2021/03/04 12:26:08;;;;;;;88.83;26.67;;;;;;;;;;5018267;28;20265;-38
2021/03/04 12:29:02;;;;;;;77.63;26.43;;;;;;;;;;5018356;28;20357;-39
2021/03/04 12:31:48;;;;;;;82.50;26.93;;;;;;;;;;5018613;28;20197;-37
2021/03/04 12:34:35;;;;;;;83.03;27.27;;;;;;;;;;5018103;28;20197;-39
2021/03/04 12:37:21;;;;;;;84.53;26.17;;;;;;;;;;5018724;28;20249;-34
2021/03/04 12:40:10;;;;;;;91.30;28.73;;;;;;;;;;5018046;28;20201;-38
2021/03/04 12:42:56;;;;;;;93.63;29.37;;;;;;;;;;5014946;28;20225;-38
2021/03/04 12:45:42;;;;;;;81.63;26.80;;;;;;;;;;5018824;28;20220;-34
2021/03/04 12:48:29;;;;;;;83.57;25.60;;;;;;;;;;5018682;28;20341;-40
2021/03/04 12:51:19;;;;;;;75.57;24.73;;;;;;;;;;5018075;28;20303;-37
2021/03/04 12:54:10;;;;;;;65.47;22.53;;;;;;;;;;5018030;28;20341;-36
2021/03/04 12:56:59;;;;;;;69.47;23.13;;;;;;;;;;5017884;28;20197;-36
2021/03/04 12:59:45;;;;;;;63.17;22.60;;;;;;;;;;5018784;28;20713;-38
2021/03/04 13:02:33;;;;;;;64.27;22.80;;;;;;;;;;5017346;28;20209;-37
2021/03/04 13:05:19;;;;;;;63.47;22.63;;;;;;;;;;5018266;28;20624;-38
2021/03/04 13:08:06;;;;;;;73.13;23.40;;;;;;;;;;5018798;28;20592;-32
2021/03/04 13:10:55;;;;;;;67.03;22.97;;;;;;;;;;5018377;28;20720;-33
2021/03/04 13:13:40;;;;;;;61.40;20.80;;;;;;;;;;5017376;28;20253;-32
2021/03/04 13:16:27;;;;;;;56.60;21.27;;;;;;;;;;5017481;28;20194;-39
2021/03/04 13:19:14;;;;;;;65.87;20.93;;;;;;;;;;5012381;28;20227;-38
2021/03/04 13:22:00;;;;;;;59.57;20.87;;;;;;;;;;4997628;28;20203;-35
2021/03/04 13:24:46;;;;;;;66.87;22.23;;;;;;;;;;4998625;28;20341;-33
2021/03/04 13:27:47;;;;;;;62.47;21.77;;;;;;;;;;4998120;28;20195;-40
2021/03/04 13:30:34;;;;;;;61.03;20.97;;;;;;;;;;4998065;28;20206;-38
2021/03/04 13:33:20;;;;;;;57.93;19.67;;;;;;;;;;4997719;28;20267;-33
2021/03/04 13:36:09;;;;;;;63.60;20.27;;;;;;;;;;4997628;28;20273;-37
2021/03/04 13:38:59;;;;;;;53.17;18.67;;;;;;;;;;4997771;28;20334;-40
2021/03/04 13:41:48;;;;;;;64.17;22.50;;;;;;;;;;4998097;28;20203;-38
2021/03/04 13:44:34;;;;;;;58.20;20.07;;;;;;;;;;4996964;28;20221;-38
2021/03/04 13:47:21;;;;;;;65.50;22.80;;;;;;;;;;5012950;28;20228;-40
2021/03/04 13:50:08;;;;;;;55.93;20.83;;;;;;;;;;5016460;28;20317;-38
2021/03/04 13:52:53;;;;;;;49.57;19.87;;;;;;;;;;5016689;28;20205;-39
2021/03/04 13:55:49;;;;;;;53.00;19.23;;;;;;;;;;5017065;28;20205;-38
2021/03/04 13:58:37;;;;;;;58.43;21.50;;;;;;;;;;5017515;28;20357;-40
2021/03/04 14:01:22;;;;;;;56.63;18.67;;;;;;;;;;5016858;28;20206;-37
2021/03/04 14:04:09;;;;;;;50.43;19.27;;;;;;;;;;5016534;28;20206;-39
2021/03/04 14:06:56;;;;;;;58.00;20.10;;;;;;;;;;5016733;28;20379;-40
2021/03/04 14:09:41;;;;;;;53.53;20.00;;;;;;;;;;5016361;28;20312;-38
2021/03/04 14:12:27;;;;;;;52.47;19.03;;;;;;;;;;5016310;28;20285;-40
2021/03/04 14:15:15;;;;;;;52.17;18.50;;;;;;;;;;5015371;28;20357;-40
2021/03/04 14:18:02;;;;;;;54.97;19.90;;;;;;;;;;5015832;28;20202;-37
2021/03/04 14:20:48;;;;;;;60.17;21.43;;;;;;;;;;5016053;28;20644;-38
2021/03/04 14:23:40;;;;;;;49.43;19.57;;;;;;;;;;5015331;28;20213;-39
2021/03/04 14:26:26;;;;;;;47.53;18.40;;;;;;;;;;5025994;28;20225;-40
2021/03/04 14:29:14;;;;;;;54.83;20.57;;;;;;;;;;5016168;28;20202;-35
2021/03/04 14:32:03;;;;;;;63.97;21.50;;;;;;;;;;5016416;28;20284;-39
2021/03/04 14:34:50;;;;;;;59.13;20.30;;;;;;;;;;5015957;28;20489;-39
2021/03/04 14:37:38;;;;;;;58.60;21.37;;;;;;;;;;5016201;28;20907;-35
2021/03/04 14:40:24;;;;;;;57.27;20.83;;;;;;;;;;5016761;28;20307;-35
2021/03/04 14:43:10;;;;;;;64.20;22.33;;;;;;;;;;5016341;28;20217;-35
2021/03/04 14:45:57;;;;;;;59.33;20.60;;;;;;;;;;5015477;28;20629;-40
2021/03/04 14:48:45;;;;;;;60.97;19.93;;;;;;;;;;5017197;28;20300;-37
2021/03/04 14:51:31;;;;;;;50.87;19.57;;;;;;;;;;5016566;28;20201;-37
2021/03/04 14:54:17;;;;;;;53.87;20.50;;;;;;;;;;5016196;28;20209;-40
2021/03/04 14:57:05;;;;;;;53.40;19.27;;;;;;;;;;5016371;28;20201;-33
2021/03/04 14:59:51;;;;;;;56.57;19.27;;;;;;;;;;5015958;28;20197;-33
2021/03/04 15:02:38;;;;;;;47.93;17.90;;;;;;;;;;5016608;28;20245;-35
2021/03/04 15:05:25;;;;;;;42.50;17.43;;;;;;;;;;5015818;28;20493;-34
2021/03/04 15:08:13;;;;;;;51.10;19.67;;;;;;;;;;5015577;28;20597;-36
2021/03/04 15:10:59;;;;;;;42.30;18.63;;;;;;;;;;5015150;28;20214;-38
2021/03/04 15:13:46;;;;;;;37.53;17.20;;;;;;;;;;5016125;28;20234;-34
2021/03/04 15:16:32;;;;;;;35.97;16.17;;;;;;;;;;5016643;28;20194;-35
2021/03/04 15:19:19;;;;;;;40.10;17.30;;;;;;;;;;5016404;28;20202;-38
2021/03/04 15:22:06;;;;;;;43.17;17.30;;;;;;;;;;5016084;28;20198;-34
2021/03/04 15:24:51;;;;;;;36.70;17.57;;;;;;;;;;5016265;28;20257;-34
2021/03/04 15:27:37;;;;;;;44.73;18.03;;;;;;;;;;5016443;28;20233;-36
2021/03/04 15:30:25;;;;;;;41.60;17.20;;;;;;;;;;5016324;28;20198;-35
2021/03/04 15:33:11;;;;;;;36.20;17.07;;;;;;;;;;5015961;28;20198;-36
2021/03/04 15:35:57;;;;;;;34.80;15.63;;;;;;;;;;5016582;28;20253;-40
2021/03/04 15:38:47;;;;;;;34.57;17.63;;;;;;;;;;5016180;28;20292;-42
2021/03/04 15:41:34;;;;;;;33.27;15.37;;;;;;;;;;5019522;28;20201;-37
2021/03/04 15:44:22;;;;;;;37.43;16.13;;;;;;;;;;5019688;28;20198;-38
2021/03/04 15:47:10;;;;;;;36.77;16.03;;;;;;;;;;5019503;28;20284;-40
2021/03/04 15:50:03;;;;;;;29.60;14.20;;;;;;;;;;5020580;28;20198;-38
2021/03/04 15:52:52;;;;;;;30.20;14.67;;;;;;;;;;5019783;28;20248;-40
2021/03/04 15:55:40;;;;;;;33.77;16.60;;;;;;;;;;5019671;28;20197;-36
2021/03/04 15:58:29;;;;;;;34.83;17.43;;;;;;;;;;5020003;28;20197;-38
2021/03/04 16:01:19;;;;;;;36.27;17.97;;;;;;;;;;5013061;28;20285;-39
2021/03/04 16:04:15;;;;;;;34.03;16.23;;;;;;;;;;5010418;28;20206;-40
2021/03/04 16:07:13;;;;;;;32.20;15.77;;;;;;;;;;5009584;28;20241;-41
2021/03/04 16:10:09;;;;;;;30.37;15.70;;;;;;;;;;5010267;28;20223;-36